createdAt,value
2022-09-14T00:00:02.380Z,7.19
2022-09-14T00:13:16.327Z,6.87
2022-09-14T00:15:49.989Z,7.03
2022-09-14T00:18:23.332Z,6.94
2022-09-14T00:21:00.208Z,7.38
2022-09-14T00:27:05.368Z,7.30
2022-09-14T00:29:41.005Z,6.89
2022-09-14T00:39:36.402Z,6.25
2022-09-14T00:42:16.803Z,6.39
2022-09-14T00:45:16.484Z,6.43
2022-09-14T00:47:53.079Z,6.69
2022-09-14T00:50:33.344Z,6.91
2022-09-14T00:53:06.864Z,6.86
2022-09-14T01:08:57.363Z,6.85
2022-09-14T01:11:51.871Z,6.82
2022-09-14T01:14:44.323Z,6.96
2022-09-14T01:17:27.428Z,6.50
2022-09-14T01:20:28.384Z,6.76
2022-09-14T01:33:47.391Z,7.17
2022-09-14T01:36:23.163Z,7.41
2022-09-14T01:39:01.342Z,7.04
2022-09-14T01:41:37.903Z,6.96
2022-09-14T01:44:24.343Z,7.30
2022-09-14T01:47:05.862Z,7.20
2022-09-14T01:49:55.002Z,6.96
2022-09-14T01:59:58.263Z,6.84
2022-09-14T02:02:44.458Z,6.74
2022-09-14T02:05:30.427Z,6.74
2022-09-14T02:08:11.364Z,7.08
2022-09-14T02:10:45.084Z,7.35
2022-09-14T02:13:19.351Z,6.83
2022-09-14T02:26:41.391Z,7.32
2022-09-14T02:29:14.999Z,7.42
2022-09-14T02:32:06.314Z,7.26
2022-09-14T02:34:53.569Z,7.19
2022-09-14T02:37:45.343Z,7.23
2022-09-14T02:40:32.973Z,7.18
2022-09-14T02:53:40.302Z,7.78
2022-09-14T02:56:23.325Z,7.47
2022-09-14T02:58:57.165Z,7.24
2022-09-14T03:01:32.391Z,7.53
2022-09-14T03:04:05.847Z,7.21
2022-09-14T03:06:39.342Z,6.99
2022-09-14T03:09:14.805Z,7.35
2022-09-14T03:22:03.324Z,7.04
2022-09-14T03:24:45.322Z,6.80
2022-09-14T03:27:18.845Z,6.93
2022-09-14T03:29:52.327Z,7.10
2022-09-14T03:32:26.142Z,7.21
2022-09-14T03:35:00.347Z,6.91
2022-09-14T03:48:12.355Z,6.71
2022-09-14T03:51:02.143Z,6.76
2022-09-14T03:53:44.530Z,6.51
2022-09-14T03:56:20.922Z,6.33
2022-09-14T03:59:01.402Z,6.02
2022-09-14T04:15:38.323Z,6.13
2022-09-14T04:18:21.363Z,6.00
2022-09-14T04:21:04.488Z,6.20
2022-09-14T04:24:12.875Z,6.24
2022-09-14T04:26:41.645Z,5.81
2022-09-14T04:29:18.344Z,6.10
2022-09-14T04:42:30.352Z,6.06
2022-09-14T04:45:10.463Z,5.97
2022-09-14T04:47:50.324Z,5.80
2022-09-14T04:50:24.020Z,5.73
2022-09-14T04:52:59.343Z,5.67
2022-09-14T04:55:33.082Z,5.56
2022-09-14T05:08:23.255Z,6.46
2022-09-14T05:11:04.396Z,6.80
2022-09-14T05:13:38.255Z,7.03
2022-09-14T05:16:13.422Z,7.32
2022-09-14T05:18:48.196Z,7.20
2022-09-14T05:35:03.335Z,7.74
2022-09-14T05:37:36.855Z,6.77
2022-09-14T05:40:11.383Z,6.87
2022-09-14T05:42:44.814Z,6.87
2022-09-14T05:45:18.358Z,6.44
2022-09-14T05:47:55.155Z,6.54
2022-09-14T05:50:37.402Z,7.52
2022-09-14T06:00:43.315Z,7.35
2022-09-14T06:03:24.515Z,7.31
2022-09-14T06:05:59.774Z,7.81
2022-09-14T06:08:33.455Z,7.58
2022-09-14T06:11:10.455Z,7.87
2022-09-14T06:13:51.464Z,7.72
2022-09-14T06:27:27.320Z,8.93
2022-09-14T06:30:00.876Z,9.61
2022-09-14T06:35:12.417Z,10.10
2022-09-14T06:37:39.774Z,10.44
2022-09-14T06:40:20.406Z,10.08
2022-09-14T06:54:14.354Z,10.83
2022-09-14T06:56:47.937Z,10.62
2022-09-14T06:59:23.375Z,10.72
2022-09-14T07:01:56.874Z,10.56
2022-09-14T07:04:31.690Z,9.94
2022-09-14T07:07:15.015Z,10.81
2022-09-14T07:09:57.336Z,10.35
2022-09-14T07:23:07.356Z,9.91
2022-09-14T07:25:42.874Z,9.63
2022-09-14T07:28:16.354Z,10.12
2022-09-14T07:30:49.847Z,10.32
2022-09-14T07:33:23.335Z,10.30
2022-09-14T07:50:00.274Z,9.70
2022-09-14T07:52:40.371Z,9.63
2022-09-14T07:55:14.074Z,9.35
2022-09-14T07:57:56.050Z,9.71
2022-09-14T08:00:31.075Z,10.06
2022-09-14T08:03:05.374Z,9.85
2022-09-14T08:05:40.794Z,9.63
2022-09-14T08:15:04.361Z,7.87
2022-09-14T08:17:37.874Z,7.37
2022-09-14T08:20:13.335Z,7.49
2022-09-14T08:22:48.737Z,7.15
2022-09-14T08:25:22.354Z,7.19
2022-09-14T08:27:55.735Z,7.10
2022-09-14T08:30:29.355Z,6.64
2022-09-14T08:43:41.357Z,7.14
2022-09-14T08:46:28.816Z,6.56
2022-09-14T08:49:19.334Z,6.81
2022-09-14T08:51:52.936Z,6.64
2022-09-14T08:54:26.355Z,6.26
2022-09-14T09:08:22.354Z,7.35
2022-09-14T09:11:00.414Z,7.78
2022-09-14T09:13:45.737Z,8.24
2022-09-14T09:16:24.752Z,8.67
2022-09-14T09:19:11.355Z,8.88
2022-09-14T09:21:47.806Z,9.18
2022-09-14T09:24:38.355Z,9.44
2022-09-14T09:35:04.316Z,9.74
2022-09-14T09:38:21.361Z,9.84
2022-09-14T09:41:10.263Z,9.60
2022-09-14T09:44:08.355Z,9.87
2022-09-14T09:46:49.801Z,9.76
2022-09-14T09:49:37.395Z,9.57
2022-09-14T10:02:49.374Z,9.68
2022-09-14T10:05:26.855Z,8.89
2022-09-14T10:08:11.681Z,9.18
2022-09-14T10:10:46.196Z,8.20
2022-09-14T10:13:37.688Z,7.78
2022-09-14T10:30:22.297Z,5.21
2022-09-14T10:33:06.357Z,5.01
2022-09-14T10:35:54.034Z,4.54
2022-09-14T10:38:39.315Z,4.56
2022-09-14T10:41:25.340Z,4.52
2022-09-14T10:44:33.361Z,4.44
2022-09-14T10:58:02.355Z,4.27
2022-09-14T11:00:52.185Z,4.49
2022-09-14T11:03:53.408Z,4.66
2022-09-14T11:06:45.636Z,4.70
2022-09-14T11:09:33.336Z,4.92
2022-09-14T11:22:58.494Z,4.71
2022-09-14T11:25:44.622Z,4.74
2022-09-14T11:28:33.354Z,4.94
2022-09-14T11:31:18.054Z,5.24
2022-09-14T11:34:18.335Z,5.59
2022-09-14T11:51:08.303Z,5.73
2022-09-14T11:53:50.521Z,5.75
2022-09-14T11:56:27.735Z,5.91
2022-09-14T11:59:13.337Z,5.64
2022-09-14T12:01:46.894Z,5.88
2022-09-14T12:04:23.355Z,6.15
2022-09-14T12:17:41.154Z,6.56
2022-09-14T12:20:47.594Z,6.26
2022-09-14T12:23:52.565Z,6.56
2022-09-14T12:26:31.815Z,6.47
2022-09-14T12:29:37.375Z,6.62
2022-09-14T12:42:49.356Z,6.60
2022-09-14T12:46:28.629Z,6.43
2022-09-14T12:49:41.371Z,6.18
2022-09-14T12:52:39.190Z,5.89
2022-09-14T12:55:45.338Z,6.07
2022-09-14T13:09:10.359Z,5.66
2022-09-14T13:11:46.419Z,6.01
2022-09-14T13:14:25.358Z,5.91
2022-09-14T13:17:01.920Z,6.11
2022-09-14T13:19:42.327Z,5.90
2022-09-14T13:22:21.219Z,6.26
2022-09-14T13:25:04.241Z,5.88
2022-09-14T13:38:28.378Z,5.57
2022-09-14T13:41:10.859Z,5.74
2022-09-14T13:43:53.400Z,5.73
2022-09-14T13:46:28.186Z,5.85
2022-09-14T13:49:03.324Z,5.86
2022-09-14T14:02:45.419Z,6.19
2022-09-14T14:05:27.498Z,5.86
2022-09-14T14:08:09.339Z,6.25
2022-09-14T14:10:50.438Z,6.11
2022-09-14T14:13:36.361Z,6.09
2022-09-14T14:30:21.325Z,6.47
2022-09-14T14:33:04.339Z,6.51
2022-09-14T14:35:37.878Z,6.34
2022-09-14T14:38:12.438Z,6.66
2022-09-14T14:40:46.854Z,6.55
2022-09-14T14:43:27.318Z,6.69
2022-09-14T14:57:18.379Z,6.58
2022-09-14T14:59:52.250Z,6.38
2022-09-14T15:02:30.271Z,6.35
2022-09-14T15:05:06.438Z,6.65
2022-09-14T15:07:42.535Z,6.70
2022-09-14T15:10:18.016Z,6.47
2022-09-14T15:23:08.298Z,6.44
2022-09-14T15:25:48.338Z,6.93
2022-09-14T15:28:22.306Z,6.92
2022-09-14T15:30:57.459Z,6.99
2022-09-14T15:33:30.838Z,6.99
2022-09-14T15:36:05.358Z,7.09
2022-09-14T15:49:48.338Z,7.51
2022-09-14T15:52:21.858Z,7.69
2022-09-14T15:54:55.318Z,7.56
2022-09-14T15:57:28.978Z,7.58
2022-09-14T16:00:02.339Z,7.76
2022-09-14T16:02:43.319Z,7.82
2022-09-14T16:05:25.342Z,7.80
2022-09-14T16:18:35.358Z,7.90
2022-09-14T16:21:13.578Z,7.67
2022-09-14T16:23:57.344Z,7.49
2022-09-14T16:26:35.043Z,7.68
2022-09-14T16:29:19.359Z,7.28
2022-09-14T16:31:54.032Z,7.60
2022-09-14T16:44:44.278Z,10.74
2022-09-14T16:47:24.319Z,11.06
2022-09-14T16:49:58.018Z,10.21
2022-09-14T16:52:31.322Z,9.39
2022-09-14T16:55:07.159Z,9.05
2022-09-14T17:11:23.338Z,10.07
2022-09-14T17:13:57.498Z,10.03
2022-09-14T17:16:33.439Z,9.73
2022-09-14T17:19:07.041Z,9.43
2022-09-14T17:21:43.363Z,10.23
2022-09-14T17:24:18.538Z,10.11
2022-09-14T17:26:54.339Z,9.87
2022-09-14T17:36:48.313Z,9.72
2022-09-14T17:39:30.123Z,9.86
2022-09-14T17:42:06.319Z,9.51
2022-09-14T17:44:40.363Z,9.51
2022-09-14T17:47:21.169Z,9.60
2022-09-14T17:50:01.358Z,9.68
2022-09-14T18:03:33.466Z,10.32
2022-09-14T18:06:09.838Z,10.37
2022-09-14T18:08:50.320Z,10.54
2022-09-14T18:11:24.438Z,10.34
2022-09-14T18:13:58.339Z,10.54
2022-09-14T18:16:33.003Z,10.74
2022-09-14T18:32:46.320Z,11.38
2022-09-14T18:35:19.786Z,11.35
2022-09-14T18:37:53.338Z,11.08
2022-09-14T18:40:27.092Z,11.21
2022-09-14T18:43:03.044Z,11.21
2022-09-14T18:45:37.378Z,11.06
2022-09-14T18:58:28.298Z,11.56
2022-09-14T19:01:09.370Z,12.04
2022-09-14T19:03:43.759Z,11.67
2022-09-14T19:06:20.340Z,11.80
2022-09-14T19:08:54.561Z,11.78
2022-09-14T19:11:31.338Z,11.89
2022-09-14T19:24:43.278Z,11.98
2022-09-14T19:27:16.943Z,11.58
2022-09-14T19:29:50.439Z,11.11
2022-09-14T19:32:23.858Z,10.83
2022-09-14T19:34:57.438Z,11.44
2022-09-14T19:51:36.301Z,11.23
2022-09-14T19:54:17.301Z,10.97
2022-09-14T19:56:50.781Z,10.82
2022-09-14T19:59:24.305Z,10.99
2022-09-14T20:01:57.861Z,10.38
2022-09-14T20:04:31.318Z,10.14
2022-09-14T20:07:06.800Z,9.95
2022-09-14T20:17:15.383Z,10.00
2022-09-14T20:19:48.760Z,9.72
2022-09-14T20:22:24.363Z,9.64
2022-09-14T20:24:57.859Z,9.81
2022-09-14T20:27:31.318Z,9.68
2022-09-14T20:30:07.720Z,9.96
2022-09-14T20:46:33.441Z,8.41
2022-09-14T20:49:11.466Z,8.48
2022-09-14T20:51:53.494Z,8.56
2022-09-14T20:54:26.838Z,8.51
2022-09-14T20:57:04.271Z,8.22
2022-09-14T20:59:38.879Z,7.78
2022-09-14T21:12:34.244Z,7.74
2022-09-14T21:15:15.296Z,8.19
2022-09-14T21:17:50.639Z,7.84
2022-09-14T21:20:24.330Z,7.55
2022-09-14T21:23:00.396Z,7.51
2022-09-14T21:25:34.272Z,7.55
2022-09-14T21:38:46.339Z,6.67
2022-09-14T21:41:22.796Z,6.51
2022-09-14T21:44:03.286Z,6.38
2022-09-14T21:46:37.427Z,6.21
2022-09-14T21:49:11.302Z,6.03
2022-09-14T21:51:44.776Z,5.90
2022-09-14T22:04:35.269Z,5.40
2022-09-14T22:07:15.294Z,5.49
2022-09-14T22:09:48.666Z,5.02
2022-09-14T22:12:22.279Z,4.62
2022-09-14T22:14:55.559Z,4.70
2022-09-14T22:17:36.297Z,4.84
2022-09-14T22:20:11.795Z,5.05
2022-09-14T22:33:00.255Z,6.09
2022-09-14T22:35:42.273Z,5.97
2022-09-14T22:38:15.652Z,5.76
2022-09-14T22:40:49.286Z,5.58
2022-09-14T22:43:24.400Z,5.32
2022-09-14T22:45:59.325Z,5.40
2022-09-14T22:59:16.631Z,5.14
2022-09-14T23:01:50.824Z,4.90
2022-09-14T23:04:24.329Z,4.63
2022-09-14T23:06:59.315Z,4.54
2022-09-14T23:09:33.305Z,4.68
2022-09-14T23:12:06.891Z,4.66
2022-09-14T23:24:57.287Z,6.14
2022-09-14T23:27:37.290Z,6.54
2022-09-14T23:30:12.950Z,6.53
2022-09-14T23:32:46.369Z,6.33
2022-09-14T23:35:20.457Z,6.61
2022-09-14T23:37:54.278Z,6.61
2022-09-14T23:40:30.061Z,6.39
2022-09-14T23:53:18.246Z,4.55
2022-09-14T23:56:00.304Z,3.87
2022-09-14T23:58:33.861Z,4.02
